Time;durP1;ratioP1;P1;durP2;ratioP2;P2;SDS_P1;SDS_P2;PMS_P1;PMS_P2;Temp;Humidity;BMP_temperature;BMP_pressure;BME280_temperature;BME280_humidity;BME280_pressure;Samples;Min_cycle;Max_cycle;Signal;HPM_P1;HPM_P2
2023/07/27 00:02:04;;;;;;;6.43;5.28;;;;;;;16.56;100.00;100863.59;5307539;28;20034;-67
2023/07/27 00:04:35;;;;;;;7.70;4.97;;;;;;;16.43;100.00;100862.16;5310722;27;20035;-67
2023/07/27 00:07:07;;;;;;;7.30;5.55;;;;;;;16.33;100.00;100858.66;5307890;28;20023;-67
2023/07/27 00:09:38;;;;;;;8.10;4.75;;;;;;;16.39;100.00;100852.66;5309902;28;20678;-67
2023/07/27 00:12:09;;;;;;;8.23;5.55;;;;;;;16.28;100.00;100852.94;5305258;28;20110;-67
2023/07/27 00:14:41;;;;;;;6.93;4.85;;;;;;;16.27;100.00;100854.75;5305977;27;20050;-67
2023/07/27 00:17:12;;;;;;;9.38;5.32;;;;;;;16.24;100.00;100847.00;5309693;28;20023;-66
2023/07/27 00:19:44;;;;;;;7.13;5.10;;;;;;;16.13;100.00;100855.31;5305841;28;20349;-66
2023/07/27 00:22:15;;;;;;;10.45;6.30;;;;;;;16.23;100.00;100853.38;5310159;28;20031;-66
2023/07/27 00:24:46;;;;;;;7.70;5.57;;;;;;;16.17;100.00;100854.00;5308981;28;20314;-66
2023/07/27 00:27:18;;;;;;;8.60;5.22;;;;;;;16.18;100.00;100844.06;5305818;28;20149;-67
2023/07/27 00:29:49;;;;;;;9.95;5.90;;;;;;;16.08;100.00;100850.38;5312620;28;20107;-66
2023/07/27 00:32:21;;;;;;;7.90;5.13;;;;;;;16.18;100.00;100844.91;5307201;28;20027;-66
2023/07/27 00:34:53;;;;;;;10.50;5.80;;;;;;;16.17;100.00;100847.78;5308811;28;20027;-66
2023/07/27 00:37:25;;;;;;;9.73;7.07;;;;;;;16.13;100.00;100849.06;5309910;28;20027;-66
2023/07/27 00:39:56;;;;;;;8.48;5.75;;;;;;;16.08;100.00;100849.53;5311806;28;20049;-66
2023/07/27 00:42:28;;;;;;;9.25;5.55;;;;;;;16.03;100.00;100841.06;5313904;28;20059;-65
2023/07/27 00:44:59;;;;;;;9.63;5.47;;;;;;;15.98;100.00;100836.16;5310661;28;20028;-65
2023/07/27 00:47:30;;;;;;;7.50;5.18;;;;;;;16.00;100.00;100830.63;5310327;28;20392;-65
2023/07/27 00:50:02;;;;;;;9.63;5.50;;;;;;;16.08;100.00;100828.00;5313787;28;20032;-65
2023/07/27 00:52:33;;;;;;;8.95;5.72;;;;;;;15.96;100.00;100823.84;5315511;27;20023;-66
2023/07/27 00:55:05;;;;;;;10.50;6.45;;;;;;;16.00;100.00;100820.69;5308602;28;20020;-65
2023/07/27 00:57:36;;;;;;;9.70;6.22;;;;;;;16.04;100.00;100816.69;5305719;28;20039;-65
2023/07/27 01:00:08;;;;;;;9.05;6.15;;;;;;;15.93;100.00;100811.53;5308901;28;20031;-64
2023/07/27 01:02:40;;;;;;;10.00;6.50;;;;;;;15.92;100.00;100807.16;5307224;28;20046;-65
2023/07/27 01:05:12;;;;;;;9.25;6.75;;;;;;;15.90;100.00;100803.78;5308334;27;20220;-65
2023/07/27 01:07:43;;;;;;;9.25;6.65;;;;;;;15.75;100.00;100798.06;5305028;28;20164;-65
2023/07/27 01:10:15;;;;;;;11.52;6.82;;;;;;;15.85;100.00;100789.94;5308252;28;20016;-64
2023/07/27 01:12:54;;;;;;;9.18;6.57;;;;;;;15.79;100.00;100791.38;5305748;28;20389;-64
2023/07/27 01:15:31;;;;;;;10.45;6.95;;;;;;;15.70;100.00;100786.88;5304761;28;20032;-64
2023/07/27 01:18:25;;;;;;;9.48;6.90;;;;;;;15.79;100.00;100791.38;5301184;28;21686;-64
2023/07/27 01:21:09;;;;;;;11.38;6.85;;;;;;;15.76;100.00;100788.16;5291760;28;20511;-64
2023/07/27 01:23:52;;;;;;;11.57;7.47;;;;;;;15.79;100.00;100777.09;5305407;28;20110;-65
2023/07/27 01:26:32;;;;;;;10.80;8.27;;;;;;;15.77;100.00;100774.56;5306791;28;20024;-65
2023/07/27 01:29:35;;;;;;;11.35;7.38;;;;;;;15.75;100.00;100776.56;5307661;28;20281;-65
2023/07/27 01:32:10;;;;;;;10.45;7.95;;;;;;;15.63;100.00;100775.06;5304523;28;20032;-65
2023/07/27 01:34:46;;;;;;;11.80;7.68;;;;;;;15.66;100.00;100769.38;5306460;28;20111;-64
2023/07/27 01:37:20;;;;;;;11.02;7.85;;;;;;;15.65;100.00;100770.38;5310845;28;20046;-64
2023/07/27 01:39:54;;;;;;;12.38;7.28;;;;;;;15.39;100.00;100763.03;5305612;28;20500;-65
2023/07/27 01:42:28;;;;;;;11.40;8.23;;;;;;;15.62;100.00;100752.69;5305777;28;20057;-65
2023/07/27 01:45:01;;;;;;;11.90;8.75;;;;;;;15.54;100.00;100752.59;5309669;28;20024;-64
2023/07/27 01:47:32;;;;;;;10.80;8.05;;;;;;;15.79;100.00;100748.34;5309611;28;20110;-64
2023/07/27 01:50:05;;;;;;;13.32;8.13;;;;;;;15.79;100.00;100747.50;5301644;28;20038;-64
2023/07/27 01:52:38;;;;;;;13.48;9.30;;;;;;;15.88;100.00;100746.59;5304657;28;20359;-65
2023/07/27 01:55:12;;;;;;;15.45;9.43;;;;;;;15.94;100.00;100745.97;5309241;28;20505;-65
2023/07/27 01:57:45;;;;;;;11.20;8.63;;;;;;;15.69;100.00;100739.47;5309030;28;20023;-64
2023/07/27 02:00:17;;;;;;;12.95;9.15;;;;;;;15.67;100.00;100733.41;5307921;28;20456;-65
2023/07/27 02:02:49;;;;;;;11.98;9.10;;;;;;;15.58;100.00;100720.88;5305862;28;20119;-65
2023/07/27 02:05:22;;;;;;;12.05;8.45;;;;;;;15.68;100.00;100722.47;5307419;28;20030;-65
2023/07/27 02:07:53;;;;;;;12.07;8.88;;;;;;;15.55;100.00;100710.41;5309156;28;20054;-65
2023/07/27 02:10:25;;;;;;;13.23;8.98;;;;;;;15.53;100.00;100710.56;5309678;28;20031;-65
2023/07/27 02:13:16;;;;;;;13.65;8.48;;;;;;;15.50;100.00;100705.50;5302571;28;20118;-65
2023/07/27 02:15:55;;;;;;;13.80;8.68;;;;;;;15.47;100.00;100695.91;5312141;28;20829;-65
2023/07/27 02:18:30;;;;;;;14.18;9.38;;;;;;;15.38;100.00;100691.44;5305331;28;20807;-65
2023/07/27 02:21:03;;;;;;;13.05;8.45;;;;;;;15.47;100.00;100685.16;5317515;28;20026;-65
2023/07/27 02:23:35;;;;;;;14.50;9.63;;;;;;;15.53;100.00;100689.06;5308002;28;20504;-65
2023/07/27 02:26:07;;;;;;;12.30;8.85;;;;;;;15.41;100.00;100675.00;5309168;28;20769;-65
2023/07/27 02:28:38;;;;;;;13.48;9.77;;;;;;;15.44;100.00;100680.06;5308353;28;20031;-65
2023/07/27 02:31:10;;;;;;;13.73;10.38;;;;;;;15.48;100.00;100675.25;5312239;28;20367;-65
2023/07/27 02:33:41;;;;;;;15.13;9.70;;;;;;;15.35;100.00;100675.59;5309110;28;20027;-65
2023/07/27 02:36:12;;;;;;;13.45;9.40;;;;;;;15.38;100.00;100664.56;5312177;28;20024;-66
2023/07/27 02:38:44;;;;;;;13.98;9.15;;;;;;;15.36;100.00;100655.81;5311076;27;20353;-66
2023/07/27 02:41:15;;;;;;;16.00;9.52;;;;;;;15.45;100.00;100651.34;5307996;28;20496;-66
2023/07/27 02:43:47;;;;;;;16.88;9.55;;;;;;;15.25;100.00;100646.13;5313907;28;20458;-64
2023/07/27 02:46:18;;;;;;;13.77;9.70;;;;;;;15.34;100.00;100652.44;5311301;28;20024;-66
2023/07/27 02:48:49;;;;;;;14.35;9.85;;;;;;;15.32;100.00;100640.13;5311848;28;20065;-66
2023/07/27 02:51:21;;;;;;;19.67;11.50;;;;;;;15.19;100.00;100640.53;5310979;28;20031;-66
2023/07/27 02:53:53;;;;;;;16.20;10.88;;;;;;;15.25;100.00;100637.22;5308254;28;20063;-66
2023/07/27 02:56:24;;;;;;;19.02;10.90;;;;;;;15.24;100.00;100635.50;5315070;28;20100;-67
2023/07/27 02:58:55;;;;;;;15.57;11.48;;;;;;;15.41;100.00;100633.81;5310989;28;20038;-67
2023/07/27 03:01:27;;;;;;;14.93;10.18;;;;;;;15.27;100.00;100636.06;5313135;28;20030;-67
2023/07/27 03:03:58;;;;;;;19.60;10.90;;;;;;;15.40;100.00;100630.31;5307977;28;20478;-67
2023/07/27 03:06:30;;;;;;;17.33;10.88;;;;;;;15.31;100.00;100625.84;5310665;28;20096;-68
2023/07/27 03:09:01;;;;;;;16.73;10.35;;;;;;;15.37;100.00;100625.22;5312078;28;20052;-68
2023/07/27 03:11:35;;;;;;;23.40;11.07;;;;;;;15.36;100.00;100618.16;5311030;28;20098;-67
2023/07/27 03:14:06;;;;;;;20.35;10.80;;;;;;;15.23;100.00;100617.72;5306614;28;20500;-67
2023/07/27 03:16:38;;;;;;;17.40;10.38;;;;;;;15.33;100.00;100606.88;5310032;28;20088;-66
2023/07/27 03:19:09;;;;;;;17.33;11.07;;;;;;;15.32;100.00;100600.63;5309867;28;20031;-67
2023/07/27 03:21:41;;;;;;;17.20;10.60;;;;;;;15.33;100.00;100590.75;5312416;27;20385;-67
2023/07/27 03:24:16;;;;;;;17.38;10.40;;;;;;;15.31;100.00;100587.38;5310302;28;20385;-67
2023/07/27 03:26:47;;;;;;;21.65;10.95;;;;;;;15.22;100.00;100589.13;5310331;28;20020;-67
2023/07/27 03:29:19;;;;;;;16.30;9.93;;;;;;;15.20;100.00;100577.69;5311871;28;20034;-67
2023/07/27 03:31:50;;;;;;;15.75;10.52;;;;;;;15.18;100.00;100558.19;5308616;28;20458;-67
2023/07/27 03:34:21;;;;;;;17.45;10.48;;;;;;;15.07;100.00;100557.44;5305389;28;20038;-67
2023/07/27 03:36:53;;;;;;;19.58;11.50;;;;;;;15.19;100.00;100549.97;5307830;27;20023;-67
2023/07/27 03:39:24;;;;;;;16.85;10.20;;;;;;;15.15;100.00;100539.69;5306911;28;20087;-67
2023/07/27 03:41:55;;;;;;;17.27;11.07;;;;;;;15.14;100.00;100540.69;5305640;28;20783;-67
2023/07/27 03:44:27;;;;;;;16.45;10.70;;;;;;;15.17;100.00;100526.94;5307844;28;20032;-67
2023/07/27 03:46:58;;;;;;;17.52;10.48;;;;;;;15.24;100.00;100517.25;5312486;28;20698;-67
2023/07/27 03:49:30;;;;;;;16.80;10.48;;;;;;;15.24;100.00;100517.25;5306064;28;20573;-67
2023/07/27 03:52:01;;;;;;;16.13;10.50;;;;;;;15.16;100.00;100511.81;5299652;28;20036;-67
2023/07/27 03:54:32;;;;;;;19.27;10.65;;;;;;;15.21;100.00;100504.16;5302585;28;20087;-68
2023/07/27 03:57:04;;;;;;;16.92;10.45;;;;;;;15.21;100.00;100498.75;5306446;28;20165;-68
2023/07/27 03:59:35;;;;;;;13.23;9.27;;;;;;;15.22;100.00;100498.59;5302848;28;20023;-67
2023/07/27 04:02:07;;;;;;;14.00;8.88;;;;;;;15.21;100.00;100501.47;5301631;28;20540;-67
2023/07/27 04:04:38;;;;;;;14.25;8.77;;;;;;;15.19;100.00;100503.47;5300973;28;20121;-68
2023/07/27 04:07:09;;;;;;;12.13;8.25;;;;;;;15.20;100.00;100497.91;5304034;28;20087;-68
2023/07/27 04:09:42;;;;;;;12.18;8.38;;;;;;;15.23;100.00;100499.44;5300081;28;21493;-68
2023/07/27 04:12:13;;;;;;;12.85;8.45;;;;;;;15.23;100.00;100504.81;5302705;28;20028;-68
2023/07/27 04:14:44;;;;;;;10.63;7.60;;;;;;;15.21;100.00;100502.28;5299810;28;20457;-66
2023/07/27 04:17:16;;;;;;;13.20;8.13;;;;;;;15.29;100.00;100499.66;5300642;28;20023;-67
2023/07/27 04:19:47;;;;;;;13.63;7.55;;;;;;;15.24;100.00;100498.44;5302867;28;20031;-68
2023/07/27 04:22:19;;;;;;;12.00;7.00;;;;;;;15.17;100.00;100492.00;5298678;28;20038;-67
2023/07/27 04:24:50;;;;;;;9.45;6.65;;;;;;;15.21;100.00;100483.47;5299197;28;20509;-67
2023/07/27 04:27:21;;;;;;;9.13;6.18;;;;;;;15.18;100.00;100485.63;5313873;28;20051;-67
2023/07/27 04:29:53;;;;;;;9.70;6.90;;;;;;;15.17;100.00;100473.19;5307585;28;20541;-67
2023/07/27 04:32:24;;;;;;;10.38;6.30;;;;;;;15.18;100.00;100474.88;5304467;28;20382;-68
2023/07/27 04:34:55;;;;;;;8.40;5.90;;;;;;;15.18;100.00;100472.19;5307696;28;20032;-68
2023/07/27 04:37:27;;;;;;;9.95;5.88;;;;;;;15.19;100.00;100468.53;5310723;28;20028;-68
2023/07/27 04:39:58;;;;;;;9.05;5.90;;;;;;;15.22;100.00;100465.50;5306291;27;20307;-67
2023/07/27 04:42:30;;;;;;;9.10;5.88;;;;;;;15.30;100.00;100462.84;5308563;28;20106;-68
2023/07/27 04:45:01;;;;;;;11.40;5.60;;;;;;;15.16;100.00;100463.44;5311615;28;20495;-67
2023/07/27 04:47:32;;;;;;;9.02;5.82;;;;;;;15.24;100.00;100456.25;5305195;28;20974;-68
2023/07/27 04:50:04;;;;;;;8.23;6.07;;;;;;;15.26;100.00;100458.81;5296680;28;20520;-70
2023/07/27 04:52:36;;;;;;;8.57;6.07;;;;;;;15.41;100.00;100453.69;5306282;28;20060;-67
2023/07/27 04:55:07;;;;;;;10.40;6.30;;;;;;;15.21;100.00;100445.03;5302056;28;20381;-67
2023/07/27 04:57:39;;;;;;;8.85;6.15;;;;;;;15.19;100.00;100447.03;5302065;28;20027;-67
2023/07/27 05:00:11;;;;;;;11.18;6.25;;;;;;;15.40;100.00;100452.88;5299778;28;20760;-67
2023/07/27 05:02:43;;;;;;;9.38;6.70;;;;;;;15.40;100.00;100450.19;5306362;28;20058;-67
2023/07/27 05:05:14;;;;;;;11.77;6.65;;;;;;;15.35;100.00;100449.81;5300924;28;20024;-67
2023/07/27 05:07:46;;;;;;;10.00;6.25;;;;;;;15.33;100.00;100449.13;5306662;28;20058;-67
2023/07/27 05:10:17;;;;;;;7.88;5.90;;;;;;;15.36;100.00;100438.06;5308172;28;20032;-67
2023/07/27 05:12:48;;;;;;;8.35;6.43;;;;;;;15.34;100.00;100432.00;5306766;28;20118;-67
2023/07/27 05:15:20;;;;;;;12.68;6.95;;;;;;;15.43;100.00;100431.03;5309285;28;20023;-67
2023/07/27 05:17:51;;;;;;;10.10;6.15;;;;;;;15.38;100.00;100422.63;5304992;28;20047;-67
2023/07/27 05:20:23;;;;;;;8.93;6.38;;;;;;;15.38;100.00;100416.38;5304294;27;20028;-67
2023/07/27 05:22:54;;;;;;;8.15;6.10;;;;;;;15.43;100.00;100412.19;5308172;28;20038;-67
2023/07/27 05:25:25;;;;;;;7.88;5.68;;;;;;;15.42;100.00;100418.59;5303112;28;20027;-68
2023/07/27 05:27:57;;;;;;;9.73;5.97;;;;;;;15.45;100.00;100407.50;5303618;28;20469;-69
2023/07/27 05:30:28;;;;;;;12.13;6.30;;;;;;;15.55;100.00;100406.56;5301273;28;20028;-67
2023/07/27 05:33:00;;;;;;;7.95;6.35;;;;;;;15.60;100.00;100407.75;5308440;28;20135;-66
2023/07/27 05:35:31;;;;;;;7.97;5.97;;;;;;;15.60;100.00;100406.91;5307821;28;20065;-66
2023/07/27 05:38:02;;;;;;;7.88;5.85;;;;;;;15.64;100.00;100400.22;5310588;28;20031;-66
2023/07/27 05:40:37;;;;;;;9.30;5.70;;;;;;;15.66;100.00;100409.78;5312647;28;20027;-67
2023/07/27 05:43:08;;;;;;;9.13;6.07;;;;;;;15.66;100.00;100403.59;5316567;28;20450;-68
2023/07/27 05:45:40;;;;;;;5.57;4.90;;;;;;;15.62;100.00;100399.53;5302502;28;20026;-68
2023/07/27 05:48:11;;;;;;;8.02;5.45;;;;;;;15.64;100.00;100395.66;5304138;28;20031;-67
2023/07/27 05:50:42;;;;;;;6.65;5.35;;;;;;;15.71;100.00;100401.25;5307397;28;20024;-68
2023/07/27 05:53:14;;;;;;;8.00;5.85;;;;;;;15.74;100.00;100389.34;5304593;28;20015;-68
2023/07/27 05:55:45;;;;;;;8.38;5.80;;;;;;;15.71;100.00;100397.72;5307584;28;20615;-68
2023/07/27 05:58:17;;;;;;;7.63;5.63;;;;;;;15.75;100.00;100391.06;5310055;28;20308;-68
2023/07/27 06:00:48;;;;;;;8.63;5.53;;;;;;;15.93;100.00;100390.94;5317041;28;20020;-68
2023/07/27 06:03:19;;;;;;;8.38;5.32;;;;;;;15.87;100.00;100393.25;5302011;28;20031;-68
2023/07/27 06:05:51;;;;;;;7.22;5.43;;;;;;;15.92;100.00;100386.59;5312791;28;20027;-67
2023/07/27 06:08:22;;;;;;;7.32;5.13;;;;;;;15.95;100.00;100386.22;5312734;28;20052;-68
2023/07/27 06:11:09;;;;;;;8.35;4.93;;;;;;;16.00;100.00;100382.03;5319886;28;20110;-67
2023/07/27 06:13:40;;;;;;;6.78;4.72;;;;;;;16.03;100.00;100375.47;5311118;28;20435;-67
2023/07/27 06:16:12;;;;;;;7.18;4.57;;;;;;;16.04;100.00;100377.19;5311684;27;20043;-68
2023/07/27 06:18:43;;;;;;;5.65;4.65;;;;;;;16.10;100.00;100373.00;5303779;28;20120;-67
2023/07/27 06:21:14;;;;;;;6.63;4.70;;;;;;;16.11;100.00;100375.53;5311592;28;20028;-67
2023/07/27 06:23:46;;;;;;;6.35;4.93;;;;;;;16.18;100.00;100376.53;5308316;28;20022;-66
2023/07/27 06:26:17;;;;;;;5.88;4.28;;;;;;;16.17;100.00;100361.41;5317542;28;20027;-66
2023/07/27 06:28:48;;;;;;;6.78;4.60;;;;;;;16.25;100.00;100374.84;5309616;28;20047;-67
2023/07/27 06:31:20;;;;;;;5.85;4.10;;;;;;;16.29;100.00;100371.84;5312826;28;20027;-66
2023/07/27 06:33:51;;;;;;;5.82;4.18;;;;;;;16.38;100.00;100363.63;5304735;28;20768;-67
2023/07/27 06:36:23;;;;;;;5.68;4.13;;;;;;;16.42;100.00;100369.50;5314617;28;20030;-67
2023/07/27 06:38:54;;;;;;;5.03;3.85;;;;;;;16.44;100.00;100368.31;5306395;28;20477;-67
2023/07/27 06:41:25;;;;;;;5.40;4.18;;;;;;;16.48;100.00;100360.75;5311886;28;20031;-66
2023/07/27 06:43:57;;;;;;;4.95;4.10;;;;;;;16.52;100.00;100363.97;5299481;28;20479;-67
2023/07/27 06:46:28;;;;;;;5.13;3.85;;;;;;;16.60;100.00;100361.25;5307220;28;20038;-66
2023/07/27 06:49:00;;;;;;;4.55;3.70;;;;;;;16.55;100.00;100359.06;5304569;28;20059;-67
2023/07/27 06:51:32;;;;;;;4.35;3.45;;;;;;;16.61;100.00;100360.25;5316735;28;20024;-66
2023/07/27 06:54:04;;;;;;;4.07;3.42;;;;;;;16.60;100.00;100367.47;5307415;28;21924;-67
2023/07/27 06:56:35;;;;;;;6.40;3.90;;;;;;;16.70;100.00;100363.78;5310381;28;20023;-66
2023/07/27 06:59:06;;;;;;;5.22;3.80;;;;;;;16.70;100.00;100369.16;5306210;28;20024;-67
2023/07/27 07:01:38;;;;;;;4.78;3.78;;;;;;;16.78;100.00;100369.16;5304935;28;20027;-67
2023/07/27 07:04:09;;;;;;;4.97;3.95;;;;;;;16.83;100.00;100362.28;5308918;28;20024;-67
2023/07/27 07:06:40;;;;;;;5.30;3.97;;;;;;;16.86;100.00;100361.13;5302665;28;20086;-67
2023/07/27 07:09:12;;;;;;;5.90;4.40;;;;;;;16.92;100.00;100362.28;5300942;28;20096;-67
2023/07/27 07:11:43;;;;;;;5.03;4.03;;;;;;;17.12;100.00;100362.75;5310719;28;20028;-67
2023/07/27 07:14:14;;;;;;;5.90;3.88;;;;;;;17.12;100.00;100362.75;5305484;28;20031;-68
2023/07/27 07:16:46;;;;;;;5.13;3.90;;;;;;;17.04;100.00;100355.50;5314759;28;20023;-66
2023/07/27 07:19:17;;;;;;;5.57;3.63;;;;;;;17.18;100.00;100364.75;5307476;28;20032;-66
2023/07/27 07:21:49;;;;;;;5.28;3.95;;;;;;;17.23;100.00;100359.69;5308542;28;20101;-68
2023/07/27 07:24:20;;;;;;;5.25;4.10;;;;;;;17.24;100.00;100367.59;5311902;28;20040;-68
2023/07/27 07:26:51;;;;;;;6.00;4.20;;;;;;;17.35;100.00;100363.69;5307756;28;20030;-68
2023/07/27 07:29:23;;;;;;;5.60;4.07;;;;;;;17.29;100.00;100356.28;5310875;28;20031;-67
2023/07/27 07:31:54;;;;;;;4.65;3.72;;;;;;;17.39;100.00;100367.75;5309891;28;20042;-66
2023/07/27 07:34:26;;;;;;;6.75;3.78;;;;;;;17.47;100.00;100363.31;5309846;28;20122;-68
2023/07/27 07:36:57;;;;;;;5.57;3.80;;;;;;;17.46;100.00;100359.78;5313729;28;20095;-68
2023/07/27 07:39:29;;;;;;;4.75;3.63;;;;;;;17.55;100.00;100357.91;5310597;28;20393;-67
2023/07/27 07:42:00;;;;;;;5.95;3.85;;;;;;;17.64;100.00;100346.91;5314720;28;20076;-68
2023/07/27 07:44:31;;;;;;;4.20;3.17;;;;;;;17.66;100.00;100345.88;5310797;27;20039;-67
2023/07/27 07:47:03;;;;;;;5.65;3.45;;;;;;;17.70;100.00;100342.66;5307637;27;20020;-67
2023/07/27 07:49:34;;;;;;;4.55;2.92;;;;;;;17.85;100.00;100348.16;5313486;28;20120;-68
2023/07/27 07:52:06;;;;;;;3.95;2.70;;;;;;;17.77;100.00;100351.69;5315282;28;20050;-67
2023/07/27 07:54:38;;;;;;;3.50;2.40;;;;;;;17.73;100.00;100344.97;5307311;28;20057;-68
2023/07/27 07:57:09;;;;;;;4.20;2.42;;;;;;;17.75;100.00;100348.34;5309192;28;20105;-69
2023/07/27 07:59:41;;;;;;;3.75;2.60;;;;;;;17.70;100.00;100345.34;5307450;28;20027;-68
2023/07/27 08:02:12;;;;;;;3.35;2.60;;;;;;;17.69;100.00;100340.97;5318266;28;20110;-68
2023/07/27 08:04:43;;;;;;;3.53;2.75;;;;;;;17.72;100.00;100337.91;5311548;28;20778;-70
2023/07/27 08:07:15;;;;;;;4.35;2.80;;;;;;;17.75;100.00;100342.13;5311953;28;20103;-68
2023/07/27 08:09:46;;;;;;;3.83;2.88;;;;;;;17.75;100.00;100337.56;5312553;28;20489;-69
2023/07/27 08:12:18;;;;;;;3.95;2.97;;;;;;;17.83;100.00;100342.91;5314636;28;20032;-69
2023/07/27 08:14:49;;;;;;;4.35;2.70;;;;;;;17.86;100.00;100341.75;5299180;28;20039;-69
2023/07/27 08:17:20;;;;;;;4.78;3.10;;;;;;;17.91;100.00;100341.19;5312162;28;20540;-69
2023/07/27 08:19:52;;;;;;;3.47;2.97;;;;;;;18.00;100.00;100340.97;5315916;28;20475;-68
2023/07/27 08:22:24;;;;;;;4.93;2.80;;;;;;;18.05;100.00;100335.06;5313995;28;20059;-68
2023/07/27 08:24:55;;;;;;;4.18;3.05;;;;;;;18.17;100.00;100330.06;5315176;28;20107;-69
2023/07/27 08:27:26;;;;;;;3.28;2.85;;;;;;;18.13;100.00;100335.00;5314540;28;20031;-69
2023/07/27 08:29:58;;;;;;;4.15;2.97;;;;;;;18.14;100.00;100334.00;5315543;28;20089;-68
2023/07/27 08:32:29;;;;;;;4.20;3.17;;;;;;;18.07;100.00;100335.72;5311866;28;20084;-69
2023/07/27 08:35:00;;;;;;;4.20;3.42;;;;;;;18.11;100.00;100331.63;5291070;28;20036;-69
2023/07/27 08:37:32;;;;;;;5.00;3.75;;;;;;;18.16;100.00;100329.25;5316247;28;20023;-69
2023/07/27 08:40:08;;;;;;;4.25;3.20;;;;;;;18.19;100.00;100326.16;5313248;28;20028;-68
2023/07/27 08:42:42;;;;;;;4.43;3.45;;;;;;;18.28;100.00;100332.38;5314829;28;20024;-70
2023/07/27 08:45:16;;;;;;;4.75;3.30;;;;;;;18.37;100.00;100333.13;5310168;28;20047;-68
2023/07/27 08:47:49;;;;;;;4.03;3.25;;;;;;;18.39;100.00;100334.63;5308418;28;20539;-68
2023/07/27 08:50:20;;;;;;;3.38;3.08;;;;;;;18.49;100.00;100331.69;5309767;28;20058;-68
2023/07/27 08:52:52;;;;;;;4.35;3.45;;;;;;;18.52;100.00;100331.31;5310940;28;20112;-68
2023/07/27 08:55:23;;;;;;;4.75;3.63;;;;;;;18.50;100.00;100324.41;5315957;28;20031;-68
2023/07/27 08:57:55;;;;;;;4.30;3.80;;;;;;;18.58;100.00;100327.91;5313363;28;20028;-68
2023/07/27 09:00:27;;;;;;;3.97;2.92;;;;;;;18.56;100.00;100329.94;5313496;28;20032;-68
2023/07/27 09:02:59;;;;;;;3.55;3.00;;;;;;;18.45;100.00;100332.22;5311905;28;20629;-68
2023/07/27 09:05:44;;;;;;;4.00;2.72;;;;;;;18.52;100.00;100334.00;5303844;28;20457;-68
2023/07/27 09:08:15;;;;;;;3.58;2.55;;;;;;;18.47;100.00;100325.63;5302820;28;20039;-67
2023/07/27 09:10:47;;;;;;;3.33;2.40;;;;;;;18.52;100.00;100325.06;5314289;28;20031;-68
2023/07/27 09:13:18;;;;;;;3.00;2.30;;;;;;;18.51;100.00;100328.81;5312672;28;20107;-68
2023/07/27 09:15:50;;;;;;;3.05;2.17;;;;;;;18.53;100.00;100316.78;5313540;28;20173;-68
2023/07/27 09:18:21;;;;;;;4.53;2.22;;;;;;;18.55;100.00;100333.66;5309349;28;20028;-68
2023/07/27 09:20:55;;;;;;;3.42;2.40;;;;;;;18.58;100.00;100333.31;5310785;28;20031;-68
2023/07/27 09:23:28;;;;;;;6.43;2.60;;;;;;;18.63;100.00;100327.34;5309732;28;20110;-67
2023/07/27 09:25:59;;;;;;;4.07;3.00;;;;;;;18.78;100.00;100317.41;5307225;28;20641;-67
2023/07/27 09:28:31;;;;;;;3.40;2.70;;;;;;;18.72;100.00;100323.53;5310901;28;20038;-66
2023/07/27 09:31:02;;;;;;;5.07;2.95;;;;;;;18.71;100.00;100327.25;5305412;28;20543;-68
2023/07/27 09:33:34;;;;;;;3.05;2.15;;;;;;;18.84;100.00;100318.56;5312065;28;20504;-68
2023/07/27 09:36:07;;;;;;;3.28;2.20;;;;;;;18.90;100.00;100325.91;5314735;28;20080;-67
2023/07/27 09:38:38;;;;;;;3.77;2.27;;;;;;;18.86;100.00;100330.03;5310647;28;20034;-68
2023/07/27 09:41:11;;;;;;;3.30;2.08;;;;;;;18.84;100.00;100320.44;5309198;28;20031;-68
2023/07/27 09:43:42;;;;;;;3.25;2.50;;;;;;;18.87;100.00;100325.44;5305466;28;20499;-67
2023/07/27 09:46:14;;;;;;;3.00;2.33;;;;;;;18.94;100.00;100324.53;5310628;28;20076;-68
2023/07/27 09:48:46;;;;;;;3.10;2.28;;;;;;;18.93;100.00;100320.16;5314446;28;20027;-67
2023/07/27 09:51:17;;;;;;;4.35;2.25;;;;;;;19.03;100.00;100325.28;5317268;28;20071;-70
2023/07/27 09:53:51;;;;;;;2.83;1.80;;;;;;;19.04;100.00;100320.72;5307220;28;20188;-67
2023/07/27 09:56:23;;;;;;;3.13;2.10;;;;;;;19.13;100.00;100325.84;5309046;28;20043;-67
2023/07/27 09:58:55;;;;;;;3.72;2.40;;;;;;;19.12;100.00;100326.03;5303381;28;20023;-67
2023/07/27 10:01:27;;;;;;;2.97;2.22;;;;;;;19.05;100.00;100323.25;5318202;28;20027;-68
2023/07/27 10:03:59;;;;;;;4.03;2.40;;;;;;;19.05;100.00;100319.72;5302677;28;20023;-67
2023/07/27 10:06:30;;;;;;;2.95;2.30;;;;;;;19.07;100.00;100326.59;5310270;28;20127;-67
2023/07/27 10:09:16;;;;;;;3.55;2.75;;;;;;;19.19;100.00;100324.25;5312055;28;20055;-68
2023/07/27 10:11:55;;;;;;;5.45;2.60;;;;;;;19.16;100.00;100321.94;5310110;28;20582;-67
2023/07/27 10:14:29;;;;;;;3.35;2.40;;;;;;;19.19;100.00;100321.56;5311746;28;20110;-67
2023/07/27 10:17:03;;;;;;;3.03;2.33;;;;;;;19.29;100.00;100329.38;5313572;28;20840;-67
2023/07/27 10:19:53;;;;;;;2.90;2.28;;;;;;;19.43;100.00;100328.56;5313255;28;20019;-67
2023/07/27 10:22:25;;;;;;;3.75;2.28;;;;;;;19.38;100.00;100323.69;5317282;28;20129;-67
2023/07/27 10:25:00;;;;;;;4.07;2.35;;;;;;;19.39;100.00;100319.97;5310056;28;20062;-67
2023/07/27 10:27:55;;;;;;;2.95;1.73;;;;;;;19.47;100.00;100326.31;5310351;28;20061;-67
2023/07/27 10:30:30;;;;;;;3.25;1.58;;;;;;;19.37;100.00;100322.03;5307471;28;20080;-68
2023/07/27 10:33:11;;;;;;;2.70;1.80;;;;;;;19.47;100.00;100332.56;5312080;28;20023;-68
2023/07/27 10:36:03;;;;;;;3.40;1.80;;;;;;;19.56;100.00;100320.59;5306568;28;20522;-68
2023/07/27 10:38:38;;;;;;;4.35;2.10;;;;;;;19.33;100.00;100326.13;5315757;28;20049;-67
2023/07/27 10:41:14;;;;;;;2.50;1.70;;;;;;;19.35;100.00;100325.97;5306444;28;20032;-68
2023/07/27 10:44:07;;;;;;;2.95;1.70;;;;;;;19.45;100.00;100328.38;5306614;28;20441;-68
2023/07/27 10:46:38;;;;;;;3.75;2.25;;;;;;;19.33;100.00;100319.88;5305037;28;20917;-68
2023/07/27 10:49:11;;;;;;;2.88;2.10;;;;;;;19.40;100.00;100332.44;5312722;28;20032;-68
2023/07/27 10:51:45;;;;;;;2.38;1.58;;;;;;;19.37;100.00;100326.59;5316776;28;20027;-70
2023/07/27 10:54:16;;;;;;;2.67;1.70;;;;;;;19.40;100.00;100323.50;5311789;28;20047;-68
2023/07/27 10:56:48;;;;;;;2.30;1.70;;;;;;;19.31;100.00;100327.34;5315508;28;20023;-68
2023/07/27 10:59:21;;;;;;;2.38;1.77;;;;;;;19.47;100.00;100331.72;5318333;28;20028;-68
2023/07/27 11:01:53;;;;;;;2.85;1.90;;;;;;;19.41;100.00;100325.19;5311964;28;20019;-68
2023/07/27 11:04:24;;;;;;;2.80;1.88;;;;;;;19.39;100.00;100327.25;5320484;27;20027;-67
2023/07/27 11:06:56;;;;;;;2.30;1.50;;;;;;;19.39;100.00;100329.97;5312510;27;20099;-68
2023/07/27 11:09:27;;;;;;;2.70;1.70;;;;;;;19.47;100.00;100329.03;5309162;27;20051;-67
2023/07/27 11:12:02;;;;;;;2.90;1.60;;;;;;;19.46;100.00;100322.75;5307939;28;20024;-67
2023/07/27 11:14:33;;;;;;;2.83;1.50;;;;;;;19.46;100.00;100319.22;5311134;28;20032;-67
2023/07/27 11:17:05;;;;;;;3.30;1.48;;;;;;;19.44;100.00;100318.56;5310640;28;20061;-67
2023/07/27 11:19:37;;;;;;;3.25;1.48;;;;;;;19.57;100.00;100310.63;5311625;28;20140;-67
2023/07/27 11:22:09;;;;;;;3.08;1.60;;;;;;;19.68;100.00;100312.00;5311484;28;20023;-67
2023/07/27 11:24:41;;;;;;;2.25;1.70;;;;;;;19.75;100.00;100311.09;5310902;28;20517;-67
2023/07/27 11:27:13;;;;;;;2.90;1.88;;;;;;;19.96;100.00;100304.84;5313234;28;20327;-67
2023/07/27 11:29:46;;;;;;;2.50;1.60;;;;;;;19.89;100.00;100311.22;5311639;28;20035;-67
2023/07/27 11:32:24;;;;;;;2.15;1.20;;;;;;;20.01;100.00;100308.84;5313358;28;20330;-67
2023/07/27 11:34:57;;;;;;;1.95;1.20;;;;;;;19.91;100.00;100311.88;5313712;28;20032;-67
2023/07/27 11:37:32;;;;;;;2.00;1.17;;;;;;;19.96;100.00;100298.56;5308958;28;20485;-67
2023/07/27 11:40:05;;;;;;;2.60;1.13;;;;;;;20.01;100.00;100303.44;5309787;28;20289;-67